Time;durP1;ratioP1;P1;durP2;ratioP2;P2;SDS_P1;SDS_P2;PMS_P1;PMS_P2;Temp;Humidity;BMP_temperature;BMP_pressure;BME280_temperature;BME280_humidity;BME280_pressure;Samples;Min_cycle;Max_cycle;Signal;HPM_P1;HPM_P2
2021/09/17 00:04:34;;;;;;;3.15;1.48;;;20.70;60.60;;;;;;20977354;27;82343;-71
2021/09/17 00:14:36;;;;;;;4.10;0.77;;;20.50;61.60;;;;;;20976006;27;81898;-71
2021/09/17 00:24:38;;;;;;;2.55;0.80;;;20.40;62.20;;;;;;20977034;27;82006;-71
2021/09/17 00:34:40;;;;;;;2.05;0.73;;;20.20;63.00;;;;;;20976350;27;81645;-71
2021/09/17 00:44:42;;;;;;;1.80;0.50;;;20.20;63.50;;;;;;20975174;27;81828;-70
2021/09/17 00:54:45;;;;;;;1.48;0.60;;;20.10;64.00;;;;;;20975050;27;81979;-71
2021/09/17 01:04:47;;;;;;;3.53;1.00;;;19.90;65.10;;;;;;20973481;27;81924;-71
2021/09/17 01:14:51;;;;;;;2.40;1.20;;;19.90;65.30;;;;;;20954731;27;81974;-71
2021/09/17 01:24:55;;;;;;;1.80;0.65;;;19.90;65.60;;;;;;20954224;27;80736;-72
2021/09/17 01:35:00;;;;;;;1.77;0.75;;;19.80;66.30;;;;;;20971726;27;80899;-72
2021/09/17 01:45:06;;;;;;;1.77;0.70;;;19.50;67.60;;;;;;20971489;27;81192;-73
2021/09/17 01:55:23;;;;;;;2.35;0.80;;;19.40;68.20;;;;;;20971248;27;81948;-71
2021/09/17 02:05:32;;;;;;;3.38;0.93;;;19.20;69.00;;;;;;20969669;27;80401;-72
2021/09/17 02:15:36;;;;;;;1.88;0.80;;;19.10;69.30;;;;;;20952286;27;82326;-74
2021/09/17 02:25:40;;;;;;;3.60;0.80;;;19.00;69.80;;;;;;21000655;27;80766;-73
2021/09/17 02:35:43;;;;;;;2.65;1.10;;;18.90;70.60;;;;;;21018331;27;80576;-72
2021/09/17 02:45:47;;;;;;;5.90;1.17;;;18.90;70.50;;;;;;20979288;27;80880;-73
2021/09/17 02:55:49;;;;;;;4.18;1.67;;;18.70;70.70;;;;;;20964350;27;80012;-72
2021/09/17 03:05:52;;;;;;;2.45;1.00;;;18.60;70.90;;;;;;20981115;27;82058;-72
2021/09/17 03:15:56;;;;;;;3.35;1.48;;;18.50;70.90;;;;;;20981518;27;80806;-72
2021/09/17 03:25:59;;;;;;;4.30;1.40;;;18.40;71.50;;;;;;20981100;27;81956;-73
2021/09/17 03:36:04;;;;;;;2.97;1.13;;;18.40;71.80;;;;;;20979579;27;80737;-74
2021/09/17 03:46:08;;;;;;;4.47;1.30;;;18.30;72.20;;;;;;20979546;27;79977;-72
2021/09/17 03:56:13;;;;;;;2.13;1.25;;;18.30;72.80;;;;;;20977642;27;80760;-72
2021/09/17 04:06:16;;;;;;;2.63;1.27;;;18.20;73.00;;;;;;20977798;27;80884;-72
2021/09/17 04:16:19;;;;;;;3.20;1.52;;;18.20;73.30;;;;;;20977366;27;82275;-73
2021/09/17 04:26:23;;;;;;;2.33;1.40;;;18.20;73.10;;;;;;20988768;27;81376;-71
2021/09/17 04:36:27;;;;;;;6.72;2.97;;;18.20;73.70;;;;;;21046605;27;81088;-71
2021/09/17 04:46:31;;;;;;;3.17;1.52;;;18.20;74.00;;;;;;21055290;27;80153;-71
2021/09/17 04:56:38;;;;;;;5.80;1.70;;;18.10;73.60;;;;;;21049621;27;80856;-72
2021/09/17 05:06:41;;;;;;;3.67;1.98;;;18.00;73.60;;;;;;21036862;27;80758;-71
2021/09/17 05:16:44;;;;;;;3.85;1.67;;;17.90;73.80;;;;;;21040681;27;80994;-71
2021/09/17 05:26:49;;;;;;;4.20;1.70;;;17.90;73.80;;;;;;21040165;27;80740;-71
2021/09/17 05:36:52;;;;;;;3.17;1.85;;;17.80;75.10;;;;;;21044705;27;80843;-74
2021/09/17 05:46:55;;;;;;;6.53;2.67;;;17.70;75.10;;;;;;21041007;27;81781;-71
2021/09/17 05:56:59;;;;;;;8.57;3.13;;;17.70;75.50;;;;;;21043827;27;81028;-72
2021/09/17 06:07:03;;;;;;;6.40;2.40;;;17.80;75.30;;;;;;21038408;27;82106;-64
2021/09/17 06:17:07;;;;;;;6.75;1.77;;;17.80;75.40;;;;;;21042462;27;81861;-72
2021/09/17 06:27:09;;;;;;;6.57;2.27;;;17.80;74.80;;;;;;21037749;27;82220;-69
2021/09/17 06:37:12;;;;;;;8.77;2.78;;;17.90;74.50;;;;;;21041547;27;80919;-65
2021/09/17 06:47:15;;;;;;;6.73;2.50;;;18.00;73.90;;;;;;21040126;27;80812;-67
2021/09/17 06:57:17;;;;;;;11.05;2.90;;;18.10;73.10;;;;;;21023592;27;80930;-67
2021/09/17 07:07:21;;;;;;;11.02;2.70;;;18.20;72.50;;;;;;21039151;27;81480;-65
2021/09/17 07:17:25;;;;;;;13.98;2.95;;;18.40;72.30;;;;;;21036968;27;81395;-64
2021/09/17 07:27:28;;;;;;;6.40;2.85;;;18.70;71.80;;;;;;21041837;27;80713;-62
2021/09/17 07:37:30;;;;;;;7.07;2.60;;;19.00;70.70;;;;;;21048231;27;81837;-67
2021/09/17 07:47:34;;;;;;;7.20;3.28;;;19.40;70.00;;;;;;21053937;27;80814;-67
2021/09/17 07:57:36;;;;;;;6.47;3.60;;;19.80;68.90;;;;;;21053391;27;80728;-63
2021/09/17 08:07:38;;;;;;;8.37;4.30;;;20.10;67.40;;;;;;21051443;27;80765;-66
2021/09/17 08:17:40;;;;;;;9.87;4.07;;;20.50;66.10;;;;;;21053506;27;81833;-62
2021/09/17 08:27:41;;;;;;;9.27;4.50;;;20.80;65.00;;;;;;21050441;27;80910;-62
2021/09/17 08:37:43;;;;;;;13.73;5.13;;;21.20;65.10;;;;;;21041714;27;81106;-61
2021/09/17 08:47:48;;;;;;;10.43;5.85;;;21.40;63.90;;;;;;21039917;27;81232;-61
2021/09/17 08:57:50;;;;;;;15.25;4.95;;;21.70;62.40;;;;;;21048296;27;81769;-62
2021/09/17 09:07:51;;;;;;;12.33;4.40;;;22.20;61.40;;;;;;21047494;27;81697;-62
2021/09/17 09:18:07;;;;;;;9.45;3.72;;;22.80;60.60;;;;;;21047874;27;80980;-68
2021/09/17 09:28:14;;;;;;;17.80;3.33;;;23.70;56.80;;;;;;21046125;27;80086;-71
2021/09/17 09:38:32;;;;;;;9.52;2.40;;;24.60;55.00;;;;;;21045215;27;81977;-64
2021/09/17 09:48:34;;;;;;;12.15;3.47;;;25.70;51.20;;;;;;21038967;27;81844;-62
2021/09/17 09:58:39;;;;;;;6.75;2.65;;;27.00;48.10;;;;;;21043177;27;80759;-62
2021/09/17 10:08:44;;;;;;;9.40;2.05;;;28.20;44.60;;;;;;21040587;27;81133;-63
2021/09/17 10:18:46;;;;;;;6.43;1.90;;;29.90;41.00;;;;;;21041413;27;81845;-62
2021/09/17 10:29:07;;;;;;;5.55;2.30;;;31.50;38.00;;;;;;21042932;27;80853;-63
2021/09/17 10:39:15;;;;;;;7.97;1.98;;;33.10;35.30;;;;;;21040717;27;81757;-73
2021/09/17 10:49:17;;;;;;;5.72;2.20;;;35.80;31.10;;;;;;21041901;27;80622;-73
2021/09/17 10:59:27;;;;;;;9.25;2.65;;;38.40;26.70;;;;;;21044623;27;81992;-74
2021/09/17 11:09:43;;;;;;;6.10;2.40;;;40.30;24.40;;;;;;21053501;27;81835;-67
2021/09/17 11:19:57;;;;;;;6.38;1.98;;;41.60;23.70;;;;;;21050607;27;81475;-71
2021/09/17 11:30:06;;;;;;;4.53;1.80;;;41.00;23.80;;;;;;21056400;27;81941;-69
2021/09/17 11:40:09;;;;;;;2.77;1.43;;;44.20;21.30;;;;;;21053522;27;81283;-63
2021/09/17 11:50:13;;;;;;;3.83;1.50;;;43.90;20.30;;;;;;21049969;27;81722;-70
2021/09/17 12:00:18;;;;;;;2.03;1.33;;;42.50;21.40;;;;;;21051084;27;81173;-64
2021/09/17 12:10:31;;;;;;;3.10;1.40;;;38.80;24.60;;;;;;21049229;27;81580;-69
2021/09/17 12:20:46;;;;;;;2.97;1.05;;;40.90;22.50;;;;;;21046230;27;81146;-67
2021/09/17 12:30:50;;;;;;;1.23;0.75;;;36.60;26.80;;;;;;21050101;27;81221;-66
2021/09/17 12:40:56;;;;;;;2.22;0.93;;;36.50;26.00;;;;;;21049462;27;81732;-68
2021/09/17 12:50:59;;;;;;;2.97;1.38;;;33.70;29.10;;;;;;21049009;27;80746;-67
2021/09/17 13:01:04;;;;;;;1.92;1.08;;;34.60;28.70;;;;;;21045328;27;81811;-68
2021/09/17 13:11:07;;;;;;;1.75;1.00;;;37.00;25.60;;;;;;21056965;27;81892;-61
2021/09/17 13:21:08;;;;;;;2.63;1.02;;;41.60;21.20;;;;;;21055750;27;80747;-63
2021/09/17 13:31:11;;;;;;;1.83;1.17;;;38.90;23.60;;;;;;21058230;27;81464;-61
2021/09/17 13:41:14;;;;;;;1.73;0.95;;;36.60;25.60;;;;;;21056877;27;80588;-60
2021/09/17 13:51:16;;;;;;;2.92;1.55;;;41.00;21.70;;;;;;21054681;27;80731;-62
2021/09/17 14:01:18;;;;;;;1.65;1.10;;;45.10;18.60;;;;;;21055530;27;80729;-62
2021/09/17 14:11:21;;;;;;;4.55;1.40;;;40.10;22.50;;;;;;21054274;27;80163;-62
2021/09/17 14:21:23;;;;;;;1.60;1.17;;;42.50;20.60;;;;;;21054890;27;81582;-64
2021/09/17 14:31:25;;;;;;;2.75;1.10;;;41.40;21.00;;;;;;21054041;27;81851;-61
2021/09/17 14:41:28;;;;;;;2.92;1.30;;;36.20;25.70;;;;;;20977991;27;80790;-61
2021/09/17 14:51:30;;;;;;;5.50;1.10;;;33.70;28.30;;;;;;21571728;22;81825;-71
2021/09/17 15:01:36;;;;;;;1.98;0.80;;;34.00;27.30;;;;;;20866961;28;80718;-64
2021/09/17 15:11:38;;;;;;;1.83;1.05;;;36.40;24.80;;;;;;20866742;28;79899;-65
2021/09/17 15:21:40;;;;;;;1.15;0.90;;;34.70;26.70;;;;;;20883645;28;79967;-64
2021/09/17 15:31:42;;;;;;;1.50;0.88;;;32.50;29.50;;;;;;20883159;28;80618;-64
2021/09/17 15:41:44;;;;;;;2.17;1.45;;;35.90;25.50;;;;;;20884013;28;81647;-67
2021/09/17 15:51:46;;;;;;;1.70;1.00;;;40.50;21.40;;;;;;20894036;27;80766;-67
2021/09/17 16:01:48;;;;;;;2.88;1.20;;;43.60;18.60;;;;;;20880725;28;81852;-65
2021/09/17 16:11:50;;;;;;;1.92;0.90;;;44.00;18.20;;;;;;20896302;28;79957;-64
2021/09/17 16:21:52;;;;;;;3.55;1.00;;;35.70;25.20;;;;;;20877124;28;81841;-64
2021/09/17 16:31:54;;;;;;;2.03;0.90;;;32.90;28.10;;;;;;20894951;28;80907;-65
2021/09/17 16:41:56;;;;;;;3.20;1.00;;;31.40;29.60;;;;;;20893839;28;80015;-64
2021/09/17 16:51:58;;;;;;;3.13;1.02;;;30.40;30.60;;;;;;20892943;27;79896;-65
2021/09/17 17:02:00;;;;;;;3.35;2.50;;;29.50;31.60;;;;;;20892554;27;80831;-65
2021/09/17 17:12:03;;;;;;;2.10;1.15;;;29.10;32.50;;;;;;20891459;28;81019;-69
2021/09/17 17:22:05;;;;;;;4.20;1.02;;;28.50;32.90;;;;;;20891452;28;81829;-66
2021/09/17 17:32:08;;;;;;;2.72;0.85;;;28.40;33.00;;;;;;20890598;28;80759;-66
2021/09/17 17:42:10;;;;;;;2.17;1.20;;;28.30;33.10;;;;;;20871980;28;80713;-66
2021/09/17 17:52:14;;;;;;;4.07;1.30;;;28.10;33.30;;;;;;20887931;28;80891;-68
2021/09/17 18:02:17;;;;;;;2.75;1.38;;;28.00;34.70;;;;;;20870991;28;81123;-65
2021/09/17 18:12:19;;;;;;;4.75;2.90;;;27.90;35.40;;;;;;20887908;27;81944;-67
2021/09/17 18:22:21;;;;;;;2.95;1.75;;;27.60;37.40;;;;;;20870756;28;81880;-63
2021/09/17 18:32:23;;;;;;;3.58;1.60;;;27.10;38.50;;;;;;20887409;28;81614;-63
2021/09/17 18:42:25;;;;;;;6.00;2.08;;;26.70;38.90;;;;;;20885530;28;80936;-71
2021/09/17 18:52:28;;;;;;;3.65;1.80;;;26.50;39.50;;;;;;20884757;28;82324;-71
2021/09/17 19:02:30;;;;;;;3.15;1.75;;;26.40;40.00;;;;;;20867184;28;80827;-71
2021/09/17 19:12:32;;;;;;;2.05;1.38;;;26.10;41.10;;;;;;20884654;28;80049;-71
2021/09/17 19:22:35;;;;;;;2.92;1.92;;;25.90;41.90;;;;;;20871082;27;80507;-71
2021/09/17 19:32:37;;;;;;;4.00;1.98;;;25.70;42.80;;;;;;20898267;28;82073;-71
2021/09/17 19:42:40;;;;;;;4.72;2.03;;;25.40;43.50;;;;;;20898099;28;80881;-73
2021/09/17 19:52:44;;;;;;;4.47;1.80;;;25.40;43.80;;;;;;20896000;28;81218;-75
2021/09/17 20:02:46;;;;;;;17.13;6.85;;;25.40;44.00;;;;;;20895970;28;80839;-71
2021/09/17 20:12:48;;;;;;;9.60;3.80;;;25.20;44.40;;;;;;20876634;28;81821;-71
2021/09/17 20:22:49;;;;;;;8.98;2.80;;;25.00;45.00;;;;;;20895000;28;81981;-70
2021/09/17 20:32:52;;;;;;;5.65;3.58;;;24.70;45.70;;;;;;20892691;28;80736;-72
2021/09/17 20:42:55;;;;;;;9.10;4.82;;;24.50;46.30;;;;;;20892806;28;81047;-71
2021/09/17 20:52:57;;;;;;;5.93;3.33;;;24.40;47.70;;;;;;20891117;28;79969;-71
2021/09/17 21:02:59;;;;;;;4.72;2.30;;;24.30;47.80;;;;;;20891507;28;80724;-74
2021/09/17 21:13:03;;;;;;;4.82;2.03;;;24.20;48.00;;;;;;20873364;28;80787;-73
2021/09/17 21:23:05;;;;;;;2.55;1.92;;;24.10;50.10;;;;;;20890515;28;80928;-73
2021/09/17 21:33:07;;;;;;;2.80;1.88;;;23.90;51.40;;;;;;20889690;28;80415;-73
2021/09/17 21:43:09;;;;;;;3.35;2.35;;;23.70;51.70;;;;;;20889316;28;79994;-74
2021/09/17 21:53:13;;;;;;;3.08;2.40;;;23.60;52.20;;;;;;20888073;27;80675;-73
2021/09/17 22:03:16;;;;;;;4.45;2.15;;;23.40;53.00;;;;;;20871245;28;81731;-73
2021/09/17 22:13:18;;;;;;;3.42;2.10;;;23.00;54.00;;;;;;20869694;28;81215;-73
2021/09/17 22:23:20;;;;;;;5.53;2.63;;;22.90;54.40;;;;;;20886840;28;80848;-71
2021/09/17 22:33:22;;;;;;;4.32;2.33;;;22.80;54.40;;;;;;20886466;28;80023;-72
2021/09/17 22:43:24;;;;;;;3.55;2.22;;;22.60;54.80;;;;;;20866540;28;79935;-72
2021/09/17 22:53:29;;;;;;;6.13;2.50;;;22.50;55.40;;;;;;20849005;28;80623;-72
2021/09/17 23:03:30;;;;;;;4.63;2.88;;;22.40;55.40;;;;;;20879330;28;80876;-72
2021/09/17 23:13:33;;;;;;;5.22;2.70;;;22.20;55.80;;;;;;20879926;28;80864;-71
2021/09/17 23:23:35;;;;;;;5.13;2.85;;;22.20;56.10;;;;;;20879586;28;82193;-71
2021/09/17 23:33:38;;;;;;;;;;;22.00;56.20;;;;;;20880017;28;80888;-73
2021/09/17 23:43:40;;;;;;;4.28;2.72;;;21.90;56.20;;;;;;20918663;28;80732;-72
2021/09/17 23:53:42;;;;;;;4.15;2.92;;;21.80;55.80;;;;;;20877249;28;80014;-71
